Time;durP1;ratioP1;P1;durP2;ratioP2;P2;SDS_P1;SDS_P2;PMS_P1;PMS_P2;Temp;Humidity;BMP_temperature;BMP_pressure;BME280_temperature;BME280_humidity;BME280_pressure;Samples;Min_cycle;Max_cycle;Signal;HPM_P1;HPM_P2
2022/10/05 00:02:00;;;;;;;;;;;;;;;11.92;70.12;101446.03;5422350;32;34205;-66
2022/10/05 00:05:05;;;;;;;;;;;;;;;11.95;70.59;101444.22;5409973;32;34755;-66
2022/10/05 00:08:10;;;;;;;;;;;;;;;12.43;68.29;101436.69;5401197;32;35443;-74
2022/10/05 00:11:13;;;;;;;;;;;;;;;11.92;70.28;101445.19;5406899;32;45487;-65
2022/10/05 00:14:29;;;;;;;;;;;;;;;11.86;70.18;101446.22;5398058;32;35071;-75
2022/10/05 00:17:31;;;;;;;;;;;;;;;11.58;70.82;101435.50;5422171;32;32687;-65
2022/10/05 00:20:33;;;;;;;;;;;;;;;12.25;68.65;101445.12;5409417;32;34891;-74
2022/10/05 00:23:35;;;;;;;;;;;;;;;11.35;71.66;101441.38;5413222;32;34320;-72
2022/10/05 00:26:36;;;;;;;;;;;;;;;11.15;73.90;101441.03;5393345;32;34665;-65
2022/10/05 00:29:38;;;;;;;;;;;;;;;11.82;71.41;101448.97;5420392;32;35601;-65
2022/10/05 00:32:41;;;;;;;;;;;;;;;11.68;71.22;101451.94;5401012;32;44459;-73
2022/10/05 00:35:43;;;;;;;;;;;;;;;11.75;71.36;101445.59;5388588;32;34472;-65
2022/10/05 00:38:44;;;;;;;;;;;;;;;11.16;73.41;101441.88;5422267;32;34794;-65
2022/10/05 00:41:52;;;;;;;;;;;;;;;11.76;71.76;101434.16;5415030;32;34280;-65
2022/10/05 00:45:24;;;;;;;;;;;;;;;12.54;67.22;101426.66;5389369;32;35214;-74
2022/10/05 00:48:31;;;;;;;;;;;;;;;12.08;68.50;101437.69;5331874;32;34869;-75
2022/10/05 00:51:35;;;;;;;;;;;;;;;11.85;70.68;101431.31;5390152;32;34416;-65
2022/10/05 00:54:40;;;;;;;;;;;;;;;11.61;71.15;101429.31;5402461;32;34861;-74
2022/10/05 00:57:41;;;;;;;;;;;;;;;11.63;70.70;101428.34;5404641;32;43832;-66
2022/10/05 01:01:19;;;;;;;;;;;;;;;12.19;68.60;101430.34;5405268;32;34439;-74
2022/10/05 01:04:25;;;;;;;;;;;;;;;11.42;70.84;101434.19;5328595;32;34661;-74
2022/10/05 01:07:33;;;;;;;;;;;;;;;12.14;69.21;101419.06;5377493;32;34969;-67
2022/10/05 01:10:46;;;;;;;;;;;;;;;13.01;64.68;101422.53;5423555;32;34773;-74
2022/10/05 01:13:48;;;;;;;;;;;;;;;12.63;65.55;101434.28;5387923;32;44597;-65
2022/10/05 01:17:09;;;;;;;;;;;;;;;12.41;66.88;101449.88;5416922;32;34949;-65
2022/10/05 01:20:17;;;;;;;;;;;;;;;11.20;71.68;101459.31;5404207;32;44806;-66
2022/10/05 01:23:22;;;;;;;;;;;;;;;11.23;72.40;101462.75;5396196;32;35159;-75
2022/10/05 01:26:42;;;;;;;;;;;;;;;11.83;70.30;101461.22;5422247;32;34161;-65
2022/10/05 01:30:17;;;;;;;;;;;;;;;11.65;70.17;101465.16;5405771;32;45063;-65
2022/10/05 01:33:48;;;;;;;;;;;;;;;11.57;70.27;101465.38;5379995;32;44411;-64
2022/10/05 01:36:56;;;;;;;;;;;;;;;12.41;67.06;101470.13;5406383;32;34859;-65
2022/10/05 01:40:05;;;;;;;;;;;;;;;12.26;66.71;101475.84;5403818;32;35286;-75
2022/10/05 01:43:07;;;;;;;;;;;;;;;11.68;69.27;101473.00;5405286;32;35070;-74
2022/10/05 01:46:08;;;;;;;;;;;;;;;12.24;67.01;101468.00;5387726;32;35487;-75
2022/10/05 01:49:14;;;;;;;;;;;;;;;12.47;66.02;101472.56;5423973;32;44657;-73
2022/10/05 01:52:15;;;;;;;;;;;;;;;12.32;66.61;101465.97;5405917;32;35812;-76
2022/10/05 01:55:25;;;;;;;;;;;;;;;11.89;67.58;101461.06;5410117;32;34794;-65
2022/10/05 01:58:32;;;;;;;;;;;;;;;11.31;70.91;101466.03;5423059;32;35867;-65
2022/10/05 02:01:38;;;;;;;;;;;;;;;11.13;72.07;101474.37;5410871;32;34677;-74
2022/10/05 02:04:40;;;;;;;;;;;;;;;11.41;70.37;101469.31;5411513;32;45231;-67
2022/10/05 02:08:07;;;;;;;;;;;;;;;11.69;69.76;101480.00;5398838;32;35568;-65
2022/10/05 02:11:12;;;;;;;;;;;;;;;12.34;66.11;101481.75;5395583;32;35584;-75
2022/10/05 02:14:15;;;;;;;;;;;;;;;12.12;66.99;101485.00;5408050;32;44684;-64
2022/10/05 02:17:18;;;;;;;;;;;;;;;11.48;69.31;101491.09;5395607;32;34649;-65
2022/10/05 02:20:24;;;;;;;;;;;;;;;10.74;72.91;101486.69;5425217;32;34538;-65
2022/10/05 02:23:27;;;;;;;;;;;;;;;10.67;73.51;101485.97;5391688;32;34225;-74
2022/10/05 02:26:29;;;;;;;;;;;;;;;11.06;72.64;101491.22;5404235;32;34953;-65
2022/10/05 02:29:31;;;;;;;;;;;;;;;11.65;69.84;101489.72;5400971;32;34536;-74
2022/10/05 02:32:39;;;;;;;;;;;;;;;11.99;67.76;101485.41;5393534;32;35263;-65
2022/10/05 02:35:41;;;;;;;;;;;;;;;12.17;66.97;101487.50;5410810;32;45217;-65
2022/10/05 02:38:55;;;;;;;;;;;;;;;12.34;65.72;101495.78;5408441;32;34252;-64
2022/10/05 02:42:01;;;;;;;;;;;;;;;11.91;67.41;101491.75;5425062;32;34418;-73
2022/10/05 02:45:21;;;;;;;;;;;;;;;10.89;72.26;101494.25;5380984;32;34795;-73
2022/10/05 02:48:23;;;;;;;;;;;;;;;10.40;75.15;101502.34;5398539;32;34989;-74
2022/10/05 02:51:34;;;;;;;;;;;;;;;10.81;73.38;101504.94;5425070;32;34171;-74
2022/10/05 02:54:59;;;;;;;;;;;;;;;11.61;69.90;101503.03;5408566;32;34715;-65
2022/10/05 02:58:01;;;;;;;;;;;;;;;11.34;69.95;101499.34;5408326;32;34683;-65
2022/10/05 03:01:14;;;;;;;;;;;;;;;10.46;74.80;101507.47;5410088;32;35293;-65
2022/10/05 03:04:25;;;;;;;;;;;;;;;10.49;74.41;101497.75;5408975;32;44975;-65
2022/10/05 03:07:46;;;;;;;;;;;;;;;10.87;73.24;101503.06;5418215;32;35063;-76
2022/10/05 03:11:23;;;;;;;;;;;;;;;11.23;71.01;101496.09;5410123;32;45117;-65
2022/10/05 03:14:26;;;;;;;;;;;;;;;10.30;75.19;101499.91;5355516;32;34776;-66
2022/10/05 03:17:29;;;;;;;;;;;;;;;10.15;76.30;101494.03;5408263;32;34589;-65
2022/10/05 03:20:50;;;;;;;;;;;;;;;10.73;74.15;101485.84;5409848;32;34779;-65
2022/10/05 03:23:52;;;;;;;;;;;;;;;11.02;72.21;101481.69;5408097;32;35650;-74
2022/10/05 03:27:03;;;;;;;;;;;;;;;10.66;73.67;101478.97;5399872;32;35412;-76
2022/10/05 03:30:18;;;;;;;;;;;;;;;10.38;75.32;101477.87;5415829;32;34121;-75
2022/10/05 03:33:33;;;;;;;;;;;;;;;10.62;74.47;101472.06;5408834;32;34374;-74
2022/10/05 03:36:35;;;;;;;;;;;;;;;10.75;73.31;101477.91;5405301;32;34983;-65
2022/10/05 03:39:56;;;;;;;;;;;;;;;11.46;70.25;101479.72;5422029;32;34595;-75
2022/10/05 03:43:16;;;;;;;;;;;;;;;11.34;69.96;101483.53;5405670;32;34692;-76
2022/10/05 03:46:18;;;;;;;;;;;;;;;10.68;72.98;101482.44;5385258;32;44574;-65
2022/10/05 03:49:46;;;;;;;;;;;;;;;10.77;72.02;101491.91;5419448;32;34885;-66
2022/10/05 03:53:02;;;;;;;;;;;;;;;11.08;71.27;101499.97;5402346;32;44544;-65
2022/10/05 03:56:04;;;;;;;;;;;;;;;11.69;68.61;101495.78;5411766;32;34591;-75
2022/10/05 03:59:14;;;;;;;;;;;;;;;11.99;66.98;101506.47;5407682;32;34555;-65
2022/10/05 04:02:27;;;;;;;;;;;;;;;11.82;67.26;101510.41;5395614;32;44622;-74
2022/10/05 04:05:30;;;;;;;;;;;;;;;10.90;70.76;101511.78;5422194;32;35615;-65
2022/10/05 04:08:44;;;;;;;;;;;;;;;11.81;67.57;101510.47;5392328;32;34787;-65
2022/10/05 04:11:49;;;;;;;;;;;;;;;11.64;67.86;101509.06;5410401;32;44534;-74
2022/10/05 04:14:57;;;;;;;;;;;;;;;10.05;74.48;101503.88;5394477;32;35530;-65
2022/10/05 04:18:01;;;;;;;;;;;;;;;10.41;73.51;101506.69;5407412;32;35369;-66
2022/10/05 04:21:08;;;;;;;;;;;;;;;10.43;74.41;101505.78;5407371;32;35169;-75
2022/10/05 04:24:34;;;;;;;;;;;;;;;11.09;71.11;101505.19;5379044;32;45219;-74
2022/10/05 04:27:38;;;;;;;;;;;;;;;11.58;67.99;101514.50;5408875;32;34519;-75
2022/10/05 04:30:40;;;;;;;;;;;;;;;11.44;68.13;101506.09;5393180;32;44740;-72
2022/10/05 04:33:43;;;;;;;;;;;;;;;10.83;70.68;101515.44;5413317;32;35336;-65
2022/10/05 04:36:47;;;;;;;;;;;;;;;10.81;71.26;101511.97;5401958;32;34645;-65
2022/10/05 04:40:08;;;;;;;;;;;;;;;11.33;69.09;101511.63;5396639;32;34787;-65
2022/10/05 04:43:14;;;;;;;;;;;;;;;11.31;69.01;101513.41;5415276;32;44391;-74
2022/10/05 04:46:21;;;;;;;;;;;;;;;10.82;70.77;101525.09;5388234;32;35527;-75
2022/10/05 04:49:28;;;;;;;;;;;;;;;10.20;73.44;101521.09;5423467;32;35341;-75
2022/10/05 04:52:30;;;;;;;;;;;;;;;9.65;77.12;101522.09;5397716;32;35369;-66
2022/10/05 04:55:36;;;;;;;;;;;;;;;10.87;71.80;101514.44;5408005;32;34987;-75
2022/10/05 04:58:44;;;;;;;;;;;;;;;11.26;69.56;101512.66;5408251;32;34248;-75
2022/10/05 05:01:51;;;;;;;;;;;;;;;11.45;68.19;101501.69;5409139;32;44534;-75
2022/10/05 05:04:56;;;;;;;;;;;;;;;10.89;69.59;101502.16;5424137;32;34793;-65
2022/10/05 05:08:01;;;;;;;;;;;;;;;10.11;74.37;101506.38;5397266;32;34893;-66
2022/10/05 05:11:18;;;;;;;;;;;;;;;10.99;71.39;101508.91;5398149;32;35031;-75
2022/10/05 05:14:43;;;;;;;;;;;;;;;11.39;69.21;101503.56;5421152;32;35179;-75
2022/10/05 05:18:04;;;;;;;;;;;;;;;11.35;68.87;101496.66;5398816;32;44510;-65
2022/10/05 05:21:09;;;;;;;;;;;;;;;10.27;73.57;101507.84;5423370;32;34631;-64
2022/10/05 05:24:29;;;;;;;;;;;;;;;10.69;72.97;101512.22;5410498;32;45078;-66
2022/10/05 05:27:39;;;;;;;;;;;;;;;10.83;70.52;101507.56;5409164;32;34995;-76
2022/10/05 05:31:03;;;;;;;;;;;;;;;10.91;71.39;101510.00;5410098;32;44744;-75
2022/10/05 05:34:18;;;;;;;;;;;;;;;11.91;68.23;101502.28;5386689;32;34272;-65
2022/10/05 05:37:32;;;;;;;;;;;;;;;11.98;68.90;101512.63;5406993;32;35466;-78
2022/10/05 05:40:46;;;;;;;;;;;;;;;12.13;66.19;101513.09;5419284;32;34116;-80
2022/10/05 05:43:48;;;;;;;;;;;;;;;12.13;66.53;101528.91;5391869;32;45162;-84
2022/10/05 05:47:08;;;;;;;;;;;;;;;13.61;60.72;101522.66;5404690;32;35373;-83
2022/10/05 05:50:31;;;;;;;;;;;;;;;15.11;56.57;101520.69;5393578;32;43644;-88
2022/10/05 05:53:36;;;;;;;;;;;;;;;16.06;54.13;101527.34;5407211;32;34412;-87
2022/10/05 05:56:39;;;;;;;;;;;;;;;15.64;54.37;101536.19;5412543;32;34222;-88
2022/10/05 06:00:02;;;;;;;;;;;;;;;16.37;51.69;101538.31;5396550;32;44630;-74
2022/10/05 06:03:07;;;;;;;;;;;;;;;16.03;52.63;101543.38;5408297;32;35170;-74
2022/10/05 06:06:10;;;;;;;;;;;;;;;15.81;53.81;101552.25;5407276;32;34168;-83
2022/10/05 06:09:17;;;;;;;;;;;;;;;15.28;54.78;101557.09;5411501;32;44958;-74
2022/10/05 06:12:39;;;;;;;;;;;;;;;15.31;54.47;101564.91;5409136;32;34614;-72
2022/10/05 06:15:43;;;;;;;;;;;;;;;16.22;53.35;101581.41;5412539;32;45499;-75
2022/10/05 06:18:47;;;;;;;;;;;;;;;15.84;52.87;101573.34;5406281;32;35514;-75
2022/10/05 06:22:16;;;;;;;;;;;;;;;15.48;54.11;101588.06;5394759;32;35390;-72
2022/10/05 06:25:23;;;;;;;;;;;;;;;15.79;53.67;101603.63;5400771;32;44732;-75
2022/10/05 06:28:26;;;;;;;;;;;;;;;15.94;53.38;101597.66;5392034;32;35622;-75
2022/10/05 06:31:32;;;;;;;;;;;;;;;14.65;56.39;101607.16;5411403;32;35341;-74
2022/10/05 06:34:50;;;;;;;;;;;;;;;16.40;52.25;101606.28;5420107;32;34553;-81
2022/10/05 06:38:10;;;;;;;;;;;;;;;16.03;53.08;101607.88;5393855;32;34814;-77
2022/10/05 06:41:22;;;;;;;;;;;;;;;16.49;50.89;101611.22;5422394;32;44482;-83
2022/10/05 06:44:29;;;;;;;;;;;;;;;16.71;51.29;101609.34;5411509;32;34484;-69
2022/10/05 06:47:46;;;;;;;;;;;;;;;16.62;50.68;101612.38;5384113;32;34462;-76
2022/10/05 06:50:56;;;;;;;;;;;;;;;18.32;46.89;101606.84;5409924;32;44591;-80
2022/10/05 06:54:17;;;;;;;;;;;;;;;17.56;48.77;101608.88;5393793;32;34219;-74
2022/10/05 06:57:29;;;;;;;;;;;;;;;19.62;44.13;101605.09;5405429;32;44665;-77
2022/10/05 07:00:39;;;;;;;;;;;;;;;19.64;43.81;101611.19;5411837;32;35483;-76
2022/10/05 07:03:48;;;;;;;;;;;;;;;20.98;40.62;101613.75;5400597;32;44532;-73
2022/10/05 07:06:52;;;;;;;;;;;;;;;20.37;41.63;101622.88;5419866;32;34359;-78
2022/10/05 07:09:56;;;;;;;;;;;;;;;19.43;44.12;101630.09;5397252;32;34269;-76
2022/10/05 07:13:07;;;;;;;;;;;;;;;19.88;43.16;101639.12;5402158;32;35381;-78
2022/10/05 07:16:10;;;;;;;;;;;;;;;19.68;44.30;101624.25;5421608;32;36734;-77
2022/10/05 07:19:17;;;;;;;;;;;;;;;21.20;39.66;101625.75;5406917;32;34159;-73
2022/10/05 07:22:26;;;;;;;;;;;;;;;19.04;44.38;101619.84;5422195;32;35556;-80
2022/10/05 07:25:37;;;;;;;;;;;;;;;18.66;45.85;101619.22;5395729;32;34075;-78
2022/10/05 07:28:45;;;;;;;;;;;;;;;17.24;49.84;101632.53;5403203;32;34281;-73
2022/10/05 07:31:50;;;;;;;;;;;;;;;18.66;46.36;101628.12;5419073;32;44916;-71
2022/10/05 07:34:57;;;;;;;;;;;;;;;18.14;47.15;101635.25;5406472;32;34234;-73
2022/10/05 07:38:00;;;;;;;;;;;;;;;17.96;48.07;101647.69;5415888;32;34314;-72
2022/10/05 07:41:05;;;;;;;;;;;;;;;17.76;48.72;101639.84;5397018;32;35133;-73
2022/10/05 07:44:11;;;;;;;;;;;;;;;17.15;50.31;101643.63;5417706;32;34261;-82
2022/10/05 07:47:26;;;;;;;;;;;;;;;15.96;54.52;101643.53;5373924;32;44627;-72
2022/10/05 07:50:37;;;;;;;;;;;;;;;15.76;55.17;101639.06;5408953;32;34496;-72
2022/10/05 07:53:39;;;;;;;;;;;;;;;15.53;55.41;101639.97;5421247;32;36429;-73
2022/10/05 07:56:42;;;;;;;;;;;;;;;16.10;54.37;101630.59;5407858;32;46488;-73
2022/10/05 07:59:55;;;;;;;;;;;;;;;15.66;55.00;101637.72;5421007;32;34136;-74
2022/10/05 08:03:10;;;;;;;;;;;;;;;15.35;54.86;101644.19;5405889;32;34413;-72
2022/10/05 08:06:33;;;;;;;;;;;;;;;15.65;54.82;101650.13;5401835;32;42734;-71
2022/10/05 08:09:40;;;;;;;;;;;;;;;17.29;50.59;101650.94;5410674;32;33997;-73
2022/10/05 08:13:01;;;;;;;;;;;;;;;15.84;54.82;101647.56;5406274;32;44657;-72
2022/10/05 08:16:04;;;;;;;;;;;;;;;15.41;55.86;101645.75;5424715;32;34919;-80
2022/10/05 08:19:22;;;;;;;;;;;;;;;15.98;54.69;101634.59;5402686;32;33381;-71
2022/10/05 08:22:27;;;;;;;;;;;;;;;15.86;54.69;101621.84;5393834;32;35160;-75
2022/10/05 08:25:47;;;;;;;;;;;;;;;16.14;54.43;101615.38;5409514;32;34968;-80
2022/10/05 08:28:58;;;;;;;;;;;;;;;15.84;55.30;101609.56;5417722;32;44520;-78
2022/10/05 08:32:01;;;;;;;;;;;;;;;16.16;54.73;101601.12;5420369;32;34173;-75
2022/10/05 08:35:12;;;;;;;;;;;;;;;17.33;51.10;101599.37;5399227;32;34085;-73
2022/10/05 08:38:19;;;;;;;;;;;;;;;16.67;52.54;101615.66;5398269;32;44517;-70
2022/10/05 08:41:39;;;;;;;;;;;;;;;17.48;50.79;101608.41;5426685;32;34217;-70
2022/10/05 08:44:54;;;;;;;;;;;;;;;17.56;50.33;101600.91;5394390;32;44616;-72
2022/10/05 08:48:02;;;;;;;;;;;;;;;17.82;49.56;101592.53;5406994;32;34513;-69
2022/10/05 08:51:12;;;;;;;;;;;;;;;17.93;50.68;101593.81;5409013;32;36997;-76
2022/10/05 08:54:17;;;;;;;;;;;;;;;18.64;46.78;101597.16;5405990;32;44342;-75
2022/10/05 08:57:31;;;;;;;;;;;;;;;17.76;48.34;101603.47;5421422;32;34013;-80
2022/10/05 09:00:46;;;;;;;;;;;;;;;18.21;48.51;101591.44;5412186;32;37171;-73
2022/10/05 09:04:06;;;;;;;;;;;;;;;17.49;50.41;101602.16;5421272;32;43312;-71
2022/10/05 09:07:25;;;;;;;;;;;;;;;17.36;50.80;101615.16;5410632;32;34941;-71
2022/10/05 09:10:43;;;;;;;;;;;;;;;18.80;47.28;101611.41;5397995;32;34910;-74
2022/10/05 09:13:45;;;;;;;;;;;;;;;18.98;44.72;101614.00;5380804;32;920180;-69
2022/10/05 09:16:49;;;;;;;;;;;;;;;18.12;46.71;101622.03;5412429;32;35424;-75
2022/10/05 09:19:59;;;;;;;;;;;;;;;17.85;47.39;101634.09;5405656;32;34271;-74
2022/10/05 09:23:12;;;;;;;;;;;;;;;17.99;46.89;101626.28;5403294;32;35388;-76
2022/10/05 09:26:29;;;;;;;;;;;;;;;18.30;46.54;101627.38;5399309;32;44367;-82
2022/10/05 09:29:31;;;;;;;;;;;;;;;17.50;48.30;101630.44;5422278;32;34514;-72
2022/10/05 09:32:36;;;;;;;;;;;;;;;17.48;48.52;101624.34;5378850;32;33845;-70
2022/10/05 09:35:57;;;;;;;;;;;;;;;18.48;46.80;101628.19;5406874;32;43236;-70
2022/10/05 09:39:08;;;;;;;;;;;;;;;20.23;42.57;101615.69;5410012;32;34217;-76
2022/10/05 09:42:09;;;;;;;;;;;;;;;21.15;40.39;101625.19;5407819;32;37226;-84
2022/10/05 09:45:47;;;;;;;;;;;;;;;21.65;39.29;101619.28;5408044;32;44636;-86
2022/10/05 09:48:50;;;;;;;;;;;;;;;22.51;37.53;101613.47;5356541;32;36650;-78
2022/10/05 09:51:57;;;;;;;;;;;;;;;24.65;33.85;101598.41;5411886;32;35485;-79
2022/10/05 09:55:04;;;;;;;;;;;;;;;25.47;32.52;101600.78;5415814;32;34483;-75
2022/10/05 09:58:29;;;;;;;;;;;;;;;22.87;36.41;101613.59;5403985;32;34148;-80
2022/10/05 10:01:56;;;;;;;;;;;;;;;25.37;32.08;101601.53;5420134;32;34827;-84
2022/10/05 10:05:06;;;;;;;;;;;;;;;22.76;36.35;101604.56;5394422;32;35549;-83
2022/10/05 10:08:21;;;;;;;;;;;;;;;22.79;36.65;101597.13;5396965;32;34086;-74
2022/10/05 10:11:32;;;;;;;;;;;;;;;24.19;34.21;101588.53;5426148;32;34855;-71
2022/10/05 10:15:06;;;;;;;;;;;;;;;26.37;29.68;101590.44;5404823;32;34361;-85
2022/10/05 10:18:20;;;;;;;;;;;;;;;24.70;32.32;101590.81;5385037;32;34335;-82
2022/10/05 10:21:22;;;;;;;;;;;;;;;25.73;30.89;101587.88;5422499;32;34349;-85
2022/10/05 10:24:24;;;;;;;;;;;;;;;23.77;34.19;101598.06;5407059;32;34340;-84
2022/10/05 10:27:45;;;;;;;;;;;;;;;25.51;31.15;101591.47;5414454;32;35267;-82
2022/10/05 10:30:53;;;;;;;;;;;;;;;24.00;33.94;101601.66;5375343;32;34683;-86
2022/10/05 10:34:01;;;;;;;;;;;;;;;25.28;31.78;101606.81;5407147;32;34232;-82
2022/10/05 10:37:05;;;;;;;;;;;;;;;24.54;32.70;101601.94;5400365;32;33866;-83
2022/10/05 10:40:13;;;;;;;;;;;;;;;24.18;33.44;101594.88;5390757;32;34037;-86
2022/10/05 10:43:34;;;;;;;;;;;;;;;21.25;39.45;101603.13;5396686;32;44588;-86
2022/10/05 10:46:39;;;;;;;;;;;;;;;22.52;37.13;101594.59;5365621;32;34493;-75
2022/10/05 10:49:59;;;;;;;;;;;;;;;20.15;42.10;101604.59;5407099;32;44581;-88
2022/10/05 10:53:20;;;;;;;;;;;;;;;21.21;40.00;101608.75;5397679;32;34353;-80
2022/10/05 10:56:25;;;;;;;;;;;;;;;19.48;44.19;101598.72;5379379;32;37157;-77
2022/10/05 10:59:31;;;;;;;;;;;;;;;20.37;42.29;101608.66;5400313;32;34180;-75
2022/10/05 11:02:51;;;;;;;;;;;;;;;20.88;41.15;101606.44;5389622;32;34394;-76
2022/10/05 11:06:03;;;;;;;;;;;;;;;20.77;42.04;101610.63;5397215;32;35927;-76
2022/10/05 11:09:23;;;;;;;;;;;;;;;20.69;42.50;101609.37;5399604;32;35481;-78
2022/10/05 11:12:51;;;;;;;;;;;;;;;20.64;43.17;101614.16;5395701;32;34256;-76
2022/10/05 11:16:08;;;;;;;;;;;;;;;20.14;43.80;101605.56;5381533;32;35329;-81
2022/10/05 11:19:32;;;;;;;;;;;;;;;19.80;45.44;101606.69;5389545;32;44532;-84
2022/10/05 11:22:55;;;;;;;;;;;;;;;19.92;45.32;101589.97;5389365;32;35041;-71
2022/10/05 11:26:03;;;;;;;;;;;;;;;20.04;44.82;101600.88;5391962;32;34267;-72
2022/10/05 11:29:17;;;;;;;;;;;;;;;20.12;44.62;101596.78;5370650;32;33132;-74
2022/10/05 11:32:35;;;;;;;;;;;;;;;20.95;43.18;101589.03;5401564;32;45057;-78
2022/10/05 11:35:55;;;;;;;;;;;;;;;20.37;44.36;101580.16;5392690;32;34843;-86
2022/10/05 11:39:06;;;;;;;;;;;;;;;20.57;44.44;101576.28;5397969;32;37707;-73
2022/10/05 11:42:10;;;;;;;;;;;;;;;19.90;46.62;101573.22;5374452;32;34293;-73
2022/10/05 11:45:20;;;;;;;;;;;;;;;19.37;48.26;101566.47;5369316;32;46102;-77
2022/10/05 11:48:23;;;;;;;;;;;;;;;19.42;48.77;101569.72;5389065;32;44355;-76
2022/10/05 11:51:33;;;;;;;;;;;;;;;19.92;47.53;101571.28;5400846;32;35641;-75
2022/10/05 11:54:54;;;;;;;;;;;;;;;19.57;48.46;101561.78;5377864;32;35697;-75
2022/10/05 11:58:15;;;;;;;;;;;;;;;20.27;46.74;101562.97;5378464;32;34281;-84
2022/10/05 12:01:26;;;;;;;;;;;;;;;20.38;46.56;101562.31;5386978;32;34884;-77
2022/10/05 12:04:28;;;;;;;;;;;;;;;20.11;47.38;101560.38;5360441;32;34847;-80
2022/10/05 12:07:35;;;;;;;;;;;;;;;20.05;47.65;101549.22;5396560;32;34311;-76
2022/10/05 12:10:48;;;;;;;;;;;;;;;20.75;45.92;101544.88;5378208;32;34083;-75
2022/10/05 12:13:50;;;;;;;;;;;;;;;20.17;47.44;101549.34;5404982;32;35892;-80
2022/10/05 12:16:52;;;;;;;;;;;;;;;20.99;45.64;101551.31;5393221;32;35630;-77
2022/10/05 12:19:57;;;;;;;;;;;;;;;20.33;47.19;101551.91;5404992;32;35488;-81
2022/10/05 12:23:11;;;;;;;;;;;;;;;20.76;46.12;101549.28;5398677;32;34007;-79
2022/10/05 12:26:13;;;;;;;;;;;;;;;21.32;44.05;101537.63;5395334;32;44149;-78
2022/10/05 12:29:34;;;;;;;;;;;;;;;20.37;46.64;101553.44;5406640;32;34162;-75
2022/10/05 12:32:39;;;;;;;;;;;;;;;21.67;43.24;101528.19;5389418;32;35534;-75
2022/10/05 12:35:44;;;;;;;;;;;;;;;21.40;43.67;101529.09;5404642;32;44859;-77
2022/10/05 12:38:56;;;;;;;;;;;;;;;21.49;43.52;101525.78;5381797;32;34600;-75
2022/10/05 12:42:04;;;;;;;;;;;;;;;20.77;44.51;101524.28;5389644;32;34085;-71
2022/10/05 12:45:09;;;;;;;;;;;;;;;20.43;46.10;101522.84;5389443;32;35479;-75
2022/10/05 12:48:26;;;;;;;;;;;;;;;20.33;46.24;101511.00;5381670;32;44681;-76
2022/10/05 12:51:30;;;;;;;;;;;;;;;21.22;43.49;101503.53;5394980;32;35982;-71
2022/10/05 12:54:36;;;;;;;;;;;;;;;20.90;43.62;101503.81;5391481;32;34172;-74
2022/10/05 12:57:51;;;;;;;;;;;;;;;21.65;42.41;101496.19;5385208;32;34988;-77
2022/10/05 13:00:56;;;;;;;;;;;;;;;21.22;42.57;101493.69;5402549;32;34256;-76
2022/10/05 13:04:02;;;;;;;;;;;;;;;20.91;43.92;101494.84;5356515;32;34251;-78
2022/10/05 13:07:14;;;;;;;;;;;;;;;21.49;42.30;101495.50;5403591;32;35369;-92
2022/10/05 13:10:19;;;;;;;;;;;;;;;20.90;43.82;101503.81;5392899;32;44510;-88
2022/10/05 13:13:36;;;;;;;;;;;;;;;21.12;42.62;101502.41;5392186;32;32666;-81
2022/10/05 13:16:44;;;;;;;;;;;;;;;21.22;41.94;101504.37;5408188;32;36808;-78
2022/10/05 13:19:47;;;;;;;;;;;;;;;21.44;40.75;101498.50;5395157;32;46753;-75
2022/10/05 13:22:57;;;;;;;;;;;;;;;21.24;40.84;101497.13;5389945;32;37331;-78
2022/10/05 13:26:06;;;;;;;;;;;;;;;23.96;35.89;101488.28;5393558;32;34664;-78
2022/10/05 13:29:14;;;;;;;;;;;;;;;25.06;33.22;101479.47;5383029;32;35068;-72
2022/10/05 13:32:21;;;;;;;;;;;;;;;23.62;34.93;101484.66;5383772;32;45963;-71
2022/10/05 13:35:23;;;;;;;;;;;;;;;25.07;32.87;101475.78;5377566;32;35511;-84
2022/10/05 13:38:35;;;;;;;;;;;;;;;25.24;32.53;101477.06;5399589;32;34395;-76
2022/10/05 13:41:47;;;;;;;;;;;;;;;24.28;33.91;101482.19;5376734;32;35437;-84
2022/10/05 13:44:49;;;;;;;;;;;;;;;24.69;33.70;101478.91;5390068;32;44545;-70
2022/10/05 13:47:54;;;;;;;;;;;;;;;22.83;37.44;101474.50;5390140;32;35137;-68
2022/10/05 13:51:17;;;;;;;;;;;;;;;22.15;38.95;101486.50;5382688;32;34253;-79
2022/10/05 13:54:37;;;;;;;;;;;;;;;21.59;40.00;101481.44;5397151;32;44668;-73
2022/10/05 13:58:06;;;;;;;;;;;;;;;21.51;40.47;101478.41;5394457;32;35848;-76
2022/10/05 14:01:12;;;;;;;;;;;;;;;20.78;41.57;101483.22;5384812;32;35680;-75
2022/10/05 14:04:20;;;;;;;;;;;;;;;21.59;40.51;101485.91;5404328;32;46927;-69
2022/10/05 14:07:24;;;;;;;;;;;;;;;21.79;39.76;101481.88;5381946;32;34224;-76
2022/10/05 14:10:39;;;;;;;;;;;;;;;21.32;40.44;101488.63;5400750;32;35382;-80
2022/10/05 14:13:45;;;;;;;;;;;;;;;21.29;40.71;101484.34;5387816;32;44672;-82
2022/10/05 14:16:52;;;;;;;;;;;;;;;21.88;39.39;101478.56;5416773;32;34047;-84
2022/10/05 14:19:56;;;;;;;;;;;;;;;21.40;40.29;101486.31;5392117;32;34250;-83
2022/10/05 14:22:59;;;;;;;;;;;;;;;21.55;40.27;101487.94;5394458;32;34433;-76
2022/10/05 14:26:01;;;;;;;;;;;;;;;21.61;40.17;101484.00;5396923;32;35624;-71
2022/10/05 14:29:15;;;;;;;;;;;;;;;20.94;41.84;101483.97;5386520;32;33550;-74
2022/10/05 14:32:20;;;;;;;;;;;;;;;20.06;43.43;101487.75;5392916;32;44224;-76
2022/10/05 14:35:24;;;;;;;;;;;;;;;20.61;42.84;101491.47;5377333;32;34259;-78
2022/10/05 14:38:30;;;;;;;;;;;;;;;20.86;42.13;101488.94;5397346;32;35640;-77
2022/10/05 14:41:36;;;;;;;;;;;;;;;21.21;41.72;101481.28;5394670;32;35755;-77
2022/10/05 14:44:38;;;;;;;;;;;;;;;21.78;40.22;101482.84;5379186;32;35347;-75
2022/10/05 14:48:07;;;;;;;;;;;;;;;21.55;41.04;101484.41;5387153;32;45340;-75
2022/10/05 14:51:10;;;;;;;;;;;;;;;21.56;40.71;101484.28;5390689;32;35794;-77
2022/10/05 14:54:22;;;;;;;;;;;;;;;21.24;41.33;101491.75;5390862;32;44785;-76
2022/10/05 14:57:34;;;;;;;;;;;;;;;20.81;42.20;101480.38;5418645;32;34394;-75
2022/10/05 15:00:38;;;;;;;;;;;;;;;21.37;40.78;101475.78;5382714;32;34205;-77
2022/10/05 15:03:53;;;;;;;;;;;;;;;21.03;41.55;101475.34;5420372;32;44748;-76
2022/10/05 15:07:01;;;;;;;;;;;;;;;20.94;41.61;101475.09;5407109;32;35544;-76
2022/10/05 15:10:25;;;;;;;;;;;;;;;21.22;40.88;101464.28;5402148;32;34427;-77
2022/10/05 15:13:29;;;;;;;;;;;;;;;20.90;41.84;101458.41;5419225;32;35005;-78
2022/10/05 15:16:32;;;;;;;;;;;;;;;20.92;41.29;101452.94;5390566;32;35478;-76
2022/10/05 15:19:43;;;;;;;;;;;;;;;20.32;42.65;101470.09;5408302;32;34748;-76
2022/10/05 15:22:59;;;;;;;;;;;;;;;19.82;43.76;101466.06;5395083;32;44351;-77
2022/10/05 15:26:20;;;;;;;;;;;;;;;19.99;43.84;101467.72;5394287;32;34883;-76
2022/10/05 15:29:41;;;;;;;;;;;;;;;20.77;41.57;101468.16;5425789;32;34917;-75
2022/10/05 15:32:46;;;;;;;;;;;;;;;21.16;40.68;101469.19;5404806;32;46810;-76
2022/10/05 15:36:08;;;;;;;;;;;;;;;20.57;41.78;101447.22;5424825;32;34692;-75
2022/10/05 15:39:11;;;;;;;;;;;;;;;20.26;42.64;101449.12;5411082;32;46793;-75
2022/10/05 15:42:14;;;;;;;;;;;;;;;20.56;42.24;101443.69;5399763;32;35614;-78
2022/10/05 15:45:31;;;;;;;;;;;;;;;20.90;41.37;101449.53;5392930;32;35726;-77
2022/10/05 15:48:34;;;;;;;;;;;;;;;20.74;41.77;101439.00;5404960;32;35644;-74
2022/10/05 15:51:50;;;;;;;;;;;;;;;20.52;42.03;101445.69;5422867;32;36688;-78
2022/10/05 15:55:11;;;;;;;;;;;;;;;19.56;43.92;101450.75;5393757;32;35806;-77
2022/10/05 15:58:21;;;;;;;;;;;;;;;20.09;43.42;101462.66;5409119;32;46619;-77
2022/10/05 16:01:28;;;;;;;;;;;;;;;19.45;44.29;101452.28;5423196;32;37110;-76
2022/10/05 16:04:35;;;;;;;;;;;;;;;20.52;41.97;101450.19;5410187;32;35419;-75
2022/10/05 16:10:59;;;;;;;;;;;;;;;20.52;42.41;101458.19;5405315;32;35507;-74
2022/10/05 16:14:04;;;;;;;;;;;;;;;20.25;43.17;101453.63;5395127;32;34533;-75
2022/10/05 16:17:25;;;;;;;;;;;;;;;20.19;43.60;101462.00;5422488;32;34669;-74
2022/10/05 16:20:29;;;;;;;;;;;;;;;20.14;43.74;101457.91;5408306;32;35202;-77